.
WxDataArchive / Data Records for 2015-04-08
2015-04-07 April 2015 2015-04-09

Data Records for Wednesday, 08 April 2015

Time	Temp	Chill	HIndex	Humid	Dewpt	 Wind 	HiWind	WindDir	Rain 	Barom
-----	----	-----	------	-----	-----	------	------	-------	-----	-----
00:00	40.3	37.7	40.3	95	39.0	4	10	90	0.00	30.100 
00:05	40.3	40.3	40.3	95	39.0	2	9	90	0.00	30.100 
00:10	40.3	37.7	40.3	95	39.0	4	10	90	0.00	30.100 
00:15	40.3	40.3	40.3	95	39.0	2	11	90	0.00	30.101 
00:20	40.2	36.7	40.2	95	38.9	5	12	90	0.00	30.101 
00:25	40.2	40.2	40.2	95	38.9	3	8	112	0.00	30.101 
00:30	40.1	37.4	40.1	95	38.8	4	10	90	0.00	30.093 
00:35	39.9	36.4	39.9	95	38.6	5	10	90	0.00	30.093 
00:40	39.9	39.9	39.9	95	38.6	3	10	90	0.00	30.093 
00:45	39.9	36.4	39.9	95	38.6	5	10	112	0.00	30.089 
00:50	39.9	39.9	39.9	95	38.6	3	8	90	0.00	30.089 
00:55	39.8	39.8	39.8	95	38.5	2	5	90	0.00	30.089 
01:00	39.8	39.8	39.8	95	38.5	3	7	112	0.01	30.096 
01:05	39.8	39.8	39.8	95	38.5	3	11	90	0.00	30.096 
01:10	39.6	39.6	39.6	95	38.3	3	9	112	0.00	30.096 
01:15	39.6	36.0	39.6	95	38.3	5	11	90	0.00	30.083 
01:20	39.5	35.9	39.5	95	38.2	5	12	90	0.00	30.083 
01:25	39.3	35.7	39.3	95	38.0	5	14	90	0.00	30.083 
01:30	39.3	35.7	39.3	95	38.0	5	14	112	0.00	30.076 
01:35	39.3	39.3	39.3	95	38.0	3	7	90	0.00	30.076 
01:40	39.3	36.5	39.3	95	38.0	4	11	90	0.00	30.076 
01:45	39.2	36.4	39.2	95	37.9	4	10	90	0.00	30.068 
01:50	39.2	36.4	39.2	96	38.2	4	10	112	0.00	30.068 
01:55	39.1	36.3	39.1	95	37.8	4	10	90	0.00	30.068 
02:00	39.1	35.4	39.1	96	38.1	5	10	90	0.00	30.060 
02:05	39.1	39.1	39.1	96	38.1	2	7	90	0.00	30.060 
02:10	39.1	39.1	39.1	96	38.1	2	7	68	0.00	30.060 
02:15	38.9	35.2	38.9	96	37.9	5	10	90	0.00	30.055 
02:20	38.9	38.9	38.9	96	37.9	3	5	90	0.00	30.055 
02:25	38.8	38.8	38.8	96	37.8	3	7	90	0.00	30.055 
02:30	38.8	35.9	38.8	96	37.8	4	7	90	0.00	30.053 
02:35	38.8	38.8	38.8	96	37.8	2	6	90	0.00	30.053 
02:40	38.6	35.7	38.6	96	37.6	4	8	112	0.00	30.053 
02:45	38.6	38.6	38.6	96	37.6	3	7	90	0.00	30.040 
02:50	38.5	35.6	38.5	96	37.5	4	7	90	0.00	30.040 
02:55	38.5	35.6	38.5	96	37.5	4	7	90	0.00	30.040 
03:00	38.5	34.7	38.5	96	37.5	5	13	90	0.00	30.034 
03:05	38.3	38.3	38.3	96	37.3	3	9	90	0.00	30.034 
03:10	38.3	34.5	38.3	96	37.3	5	11	90	0.00	30.034 
03:15	38.3	38.3	38.3	96	37.3	3	9	90	0.00	30.030 
03:20	38.3	38.3	38.3	96	37.3	3	7	90	0.00	30.030 
03:25	38.3	38.3	38.3	96	37.3	3	7	90	0.00	30.030 
03:30	38.3	38.3	38.3	96	37.3	3	6	90	0.00	30.029 
03:35	38.3	38.3	38.3	96	37.3	3	9	112	0.00	30.029 
03:40	38.2	35.2	38.2	96	37.2	4	8	112	0.00	30.029 
03:45	38.2	38.2	38.2	96	37.2	2	7	90	0.00	30.034 
03:50	38.2	38.2	38.2	96	37.2	3	5	90	0.00	30.034 
03:55	38.2	38.2	38.2	96	37.2	3	7	90	0.00	30.034 
04:00	38.2	38.2	38.2	96	37.2	3	5	90	0.00	30.021 
04:05	38.0	38.0	38.0	96	37.0	3	8	90	0.00	30.021 
04:10	38.0	35.0	38.0	96	37.0	4	10	90	0.00	30.021 
04:15	37.9	34.0	37.9	96	36.9	5	11	112	0.00	30.019 
04:20	37.9	34.0	37.9	96	36.9	5	12	90	0.00	30.019 
04:25	37.9	37.9	37.9	96	36.9	3	9	90	0.00	30.019 
04:30	37.8	37.8	37.8	96	36.8	2	6	90	0.00	30.010 
04:35	37.8	37.8	37.8	96	36.8	3	6	90	0.00	30.010 
04:40	37.6	37.6	37.6	96	36.6	2	7	90	0.00	30.010 
04:45	37.6	37.6	37.6	96	36.6	3	5	90	0.00	29.997 
04:50	37.6	37.6	37.6	96	36.6	2	7	90	0.00	29.997 
04:55	37.5	37.5	37.5	96	36.5	3	7	90	0.00	29.997 
05:00	37.5	37.5	37.5	96	36.5	3	7	90	0.00	29.994 
05:05	37.5	37.5	37.5	96	36.5	2	5	90	0.00	29.994 
05:10	37.5	37.5	37.5	96	36.5	3	5	90	0.00	29.994 
05:15	37.5	34.4	37.5	96	36.5	4	9	90	0.00	29.988 
05:20	37.5	37.5	37.5	96	36.5	2	7	90	0.00	29.988 
05:25	37.5	37.5	37.5	96	36.5	3	6	90	0.00	29.988 
05:30	37.5	34.4	37.5	96	36.5	4	9	90	0.00	29.980 
05:35	37.3	34.2	37.3	96	36.3	4	7	90	0.00	29.980 
05:40	37.3	37.3	37.3	96	36.3	3	7	90	0.00	29.980 
05:45	37.3	37.3	37.3	96	36.3	3	6	90	0.00	29.984 
05:50	37.3	37.3	37.3	96	36.3	2	4	90	0.00	29.984 
05:55	37.5	37.5	37.5	96	36.5	2	5	90	0.00	29.984 
06:00	37.5	34.4	37.5	96	36.5	4	7	90	0.00	29.965 
06:05	37.5	34.4	37.5	96	36.5	4	9	90	0.00	29.965 
06:10	37.5	37.5	37.5	96	36.5	3	7	112	0.00	29.965 
06:15	37.5	37.5	37.5	96	36.5	3	6	90	0.00	29.969 
06:20	37.6	37.6	37.6	96	36.6	1	3	90	0.00	29.969 
06:25	37.6	37.6	37.6	96	36.6	3	9	90	0.00	29.969 
06:30	37.6	37.6	37.6	96	36.6	2	4	112	0.00	29.982 
06:35	37.6	37.6	37.6	96	36.6	2	6	112	0.00	29.982 
06:40	37.6	37.6	37.6	96	36.6	2	5	90	0.00	29.982 
06:45	37.6	37.6	37.6	96	36.6	2	4	90	0.00	29.988 
06:50	37.6	37.6	37.6	96	36.6	1	5	68	0.00	29.988 
06:55	37.6	37.6	37.6	96	36.6	3	7	90	0.00	29.988 
07:00	37.6	37.6	37.6	96	36.6	2	5	90	0.00	29.980 
07:05	37.6	37.6	37.6	96	36.6	2	5	90	0.00	29.980 
07:10	37.6	37.6	37.6	96	36.6	3	6	90	0.00	29.980 
07:15	37.6	37.6	37.6	96	36.6	2	5	90	0.00	29.975 
07:20	37.6	37.6	37.6	96	36.6	2	4	90	0.00	29.975 
07:25	37.8	37.8	37.8	96	36.8	2	5	90	0.00	29.975 
07:30	37.8	37.8	37.8	96	36.8	1	4	90	0.00	29.978 
07:35	37.9	37.9	37.9	97	37.1	1	4	90	0.00	29.978 
07:40	37.8	37.8	37.8	97	37.0	2	6	90	0.00	29.978 
07:45	37.8	37.8	37.8	96	36.8	2	5	90	0.00	29.992 
07:50	37.8	37.8	37.8	97	37.0	1	3	90	0.00	29.992 
07:55	37.9	37.9	37.9	97	37.1	1	4	90	0.00	29.992 
08:00	37.9	37.9	37.9	97	37.1	2	5	90	0.00	29.980 
08:05	38.0	38.0	38.0	97	37.2	2	6	90	0.00	29.980 
08:10	38.0	38.0	38.0	97	37.2	2	4	90	0.00	29.980 
08:15	38.0	38.0	38.0	97	37.2	2	5	112	0.00	29.973 
08:20	38.2	38.2	38.2	97	37.4	1	6	90	0.00	29.973 
08:25	38.2	38.2	38.2	97	37.4	3	9	112	0.00	29.973 
08:30	38.2	38.2	38.2	97	37.4	2	6	90	0.00	29.973 
08:35	38.3	38.3	38.3	97	37.5	2	6	112	0.00	29.973 
08:40	38.3	38.3	38.3	97	37.5	1	5	112	0.00	29.973 
08:45	38.3	38.3	38.3	97	37.5	1	4	90	0.00	29.982 
08:50	38.3	38.3	38.3	97	37.5	1	5	112	0.00	29.982 
08:55	38.5	38.5	38.5	97	37.7	1	4	112	0.00	29.982 
09:00	38.6	38.6	38.6	97	37.8	1	4	112	0.00	29.982 
09:05	38.6	38.6	38.6	97	37.8	1	5	90	0.00	29.982 
09:10	38.5	38.5	38.5	97	37.7	2	5	90	0.00	29.982 
09:15	38.5	38.5	38.5	97	37.7	2	5	90	0.00	29.978 
09:20	38.5	38.5	38.5	97	37.7	1	4	112	0.00	29.978 
09:25	38.5	38.5	38.5	97	37.7	2	5	112	0.00	29.978 
09:30	38.6	38.6	38.6	97	37.8	1	5	90	0.00	29.974 
09:35	38.6	38.6	38.6	97	37.8	2	9	112	0.00	29.974 
09:40	38.6	38.6	38.6	97	37.8	3	10	112	0.01	29.974 
09:45	38.6	38.6	38.6	97	37.8	1	4	90	0.00	29.944 
09:50	38.8	38.8	38.8	97	38.0	1	4	90	0.00	29.944 
09:55	39.1	39.1	39.1	97	38.3	1	3	112	0.00	29.944 
10:00	39.3	39.3	39.3	97	38.5	1	4	112	0.00	29.929 
10:05	39.5	39.5	39.5	97	38.7	1	3	90	0.00	29.929 
10:10	39.6	39.6	39.6	97	38.8	2	4	90	0.00	29.929 
10:15	39.8	39.8	39.8	97	39.0	2	6	90	0.00	29.910 
10:20	39.9	39.9	39.9	97	39.1	2	4	90	0.00	29.910 
10:25	40.1	40.1	40.1	97	39.3	3	6	90	0.00	29.910 
10:30	40.1	40.1	40.1	97	39.3	1	4	90	0.00	29.899 
10:35	40.1	40.1	40.1	97	39.3	0	3	90	0.00	29.899 
10:40	40.2	40.2	40.2	97	39.4	1	3	22	0.00	29.899 
10:45	40.2	40.2	40.2	97	39.4	0	2	22	0.00	29.946 
10:50	40.3	40.3	40.3	97	39.5	1	3	112	0.00	29.946 
10:55	40.3	40.3	40.3	97	39.5	0	3	112	0.00	29.946 
11:00	40.3	40.3	40.3	97	39.5	1	6	90	0.00	29.917 
11:05	40.3	40.3	40.3	97	39.5	1	3	68	0.00	29.917 
11:10	40.3	40.3	40.3	97	39.5	1	4	90	0.00	29.917 
11:15	40.2	40.2	40.2	97	39.4	1	4	68	0.00	29.916 
11:20	40.3	40.3	40.3	97	39.5	1	3	68	0.00	29.916 
11:25	40.3	40.3	40.3	97	39.5	1	4	90	0.00	29.916 
11:30	40.6	40.6	40.6	97	39.8	1	3	90	0.00	29.919 
11:35	40.8	40.8	40.8	97	40.0	0	3	68	0.00	29.919 
11:40	41.2	41.2	41.2	98	40.7	1	3	68	0.00	29.919 
11:45	41.6	41.6	41.6	98	41.1	0	4	338	0.00	29.928 
11:50	41.8	41.8	41.8	98	41.3	1	4	45	0.00	29.928 
11:55	42.1	42.1	42.1	98	41.6	1	3	68	0.00	29.928 
12:00	42.2	42.2	42.2	98	41.7	0	2	68	0.00	29.928 
12:05	42.5	42.5	42.5	98	42.0	1	3	68	0.00	29.928 
12:10	42.8	42.8	42.8	98	42.3	1	3	68	0.00	29.928 
12:15	43.2	43.2	43.2	98	42.7	0	2	68	0.00	29.932 
12:20	43.6	43.6	43.6	98	43.1	0	3	68	0.00	29.932 
12:25	43.9	43.9	43.9	98	43.4	0	2	68	0.00	29.932 
12:30	44.3	44.3	44.3	98	43.8	0	0	---	0.00	29.942 
12:35	44.5	44.5	44.5	98	44.0	0	2	68	0.00	29.942 
12:40	44.8	44.8	44.8	98	44.3	0	0	---	0.00	29.942 
12:45	45.1	45.1	45.1	98	44.6	0	2	68	0.00	29.939 
12:50	45.2	45.2	45.2	98	44.7	0	1	68	0.00	29.939 
12:55	45.8	45.8	45.8	98	45.3	0	1	68	0.00	29.939 
13:00	46.7	46.7	46.7	98	46.2	0	2	68	0.00	29.931 
13:05	47.0	47.0	47.0	98	46.5	0	2	68	0.00	29.931 
13:10	47.0	47.0	47.0	98	46.5	0	2	68	0.00	29.931 
13:15	47.6	47.6	47.6	98	47.1	0	2	68	0.00	29.927 
13:20	48.0	48.0	48.0	98	47.5	0	2	68	0.00	29.927 
13:25	48.6	48.6	48.6	98	48.1	0	1	68	0.00	29.927 
13:30	49.6	49.6	49.6	98	49.1	0	0	---	0.00	29.936 
13:35	50.2	50.2	50.2	98	49.7	1	3	68	0.00	29.936 
13:40	51.1	51.1	51.1	98	50.6	0	2	68	0.00	29.936 
13:45	51.7	51.7	51.7	98	51.2	0	4	68	0.00	29.936 
13:50	51.9	51.9	51.9	98	51.4	1	3	68	0.00	29.936 
13:55	51.9	51.9	51.9	98	51.4	2	5	112	0.00	29.936 
14:00	52.0	52.0	52.0	98	51.5	1	4	112	0.00	29.942 
14:05	52.3	52.3	52.3	98	51.8	0	2	112	0.00	29.942 
14:10	53.2	53.2	53.2	98	52.6	0	1	112	0.00	29.942 
14:15	54.1	54.1	54.1	98	53.5	0	3	112	0.00	29.942 
14:20	54.4	54.4	54.4	97	53.6	0	1	112	0.00	29.942 
14:25	54.8	54.8	54.8	97	54.0	0	4	112	0.00	29.942 
14:30	55.3	55.3	55.3	97	54.5	1	4	68	0.00	29.934 
14:35	55.6	55.6	55.6	96	54.5	1	4	90	0.00	29.934 
14:40	56.0	56.0	56.0	96	54.9	1	4	90	0.00	29.934 
14:45	56.3	56.3	56.3	94	54.6	1	4	90	0.00	29.937 
14:50	56.6	56.6	56.6	92	54.3	2	5	90	0.00	29.937 
14:55	57.3	57.3	57.3	91	54.7	0	3	90	0.00	29.937 
15:00	58.3	58.3	58.3	89	55.1	0	2	90	0.00	29.937 
15:05	59.0	59.0	59.0	85	54.5	1	4	90	0.00	29.937 
15:10	59.5	59.5	59.5	84	54.7	2	4	90	0.00	29.937 
15:15	60.1	60.1	60.1	81	54.2	1	3	90	0.00	29.938 
15:20	60.9	60.9	60.9	80	54.7	1	5	90	0.00	29.938 
15:25	61.3	61.3	61.3	77	54.0	2	6	90	0.00	29.938 
15:30	62.0	62.0	62.0	76	54.3	2	5	90	0.00	29.932 
15:35	62.6	62.6	62.6	75	54.6	2	5	90	0.00	29.932 
15:40	63.4	63.4	63.4	74	55.0	1	5	90	0.00	29.932 
15:45	64.3	64.3	64.3	74	55.8	1	5	90	0.00	29.919 
15:50	65.0	65.0	65.0	72	55.7	0	3	90	0.00	29.919 
15:55	66.3	66.3	66.3	72	57.0	1	6	292	0.00	29.919 
16:00	67.4	67.4	67.4	70	57.3	1	4	292	0.00	29.905 
16:05	68.3	68.3	68.3	65	56.1	1	5	292	0.00	29.905 
16:10	68.9	68.9	68.9	66	57.1	1	3	315	0.00	29.905 
16:15	69.3	69.3	69.3	65	57.0	1	4	292	0.00	29.903 
16:20	69.6	69.6	69.6	66	57.7	1	3	292	0.00	29.903 
16:25	69.9	69.9	69.9	66	58.0	1	4	315	0.00	29.903 
16:30	70.1	70.1	70.1	65	57.8	1	4	90	0.00	29.899 
16:35	69.4	69.4	69.4	66	57.5	2	5	90	0.00	29.899 
16:40	68.1	68.1	68.1	69	57.5	3	7	90	0.00	29.899 
16:45	67.6	67.6	67.6	70	57.5	2	4	90	0.00	29.893 
16:50	67.3	67.3	67.3	70	57.2	1	3	90	0.00	29.893 
16:55	67.1	67.1	67.1	70	57.0	2	4	90	0.00	29.893 
17:00	66.6	66.6	66.6	70	56.5	3	5	90	0.00	29.898 
17:05	66.1	66.1	66.1	71	56.4	3	5	90	0.00	29.898 
17:10	66.0	66.0	66.0	72	56.7	2	5	112	0.00	29.898 
17:15	65.8	65.8	65.8	72	56.5	2	6	90	0.00	29.896 
17:20	65.6	65.6	65.6	72	56.3	1	4	112	0.00	29.896 
17:25	65.5	65.5	65.5	73	56.6	2	6	112	0.00	29.896 
17:30	65.2	65.2	65.2	73	56.3	2	4	112	0.00	29.906 
17:35	64.8	64.8	64.8	73	55.9	2	6	112	0.00	29.906 
17:40	64.5	64.5	64.5	74	56.0	2	4	90	0.00	29.906 
17:45	64.3	64.3	64.3	74	55.8	2	4	90	0.00	29.909 
17:50	64.2	64.2	64.2	74	55.7	1	4	90	0.00	29.909 
17:55	64.0	64.0	64.0	75	55.9	2	4	90	0.00	29.909 
18:00	64.0	64.0	64.0	75	55.9	1	4	90	0.00	29.907 
18:05	64.0	64.0	64.0	75	55.9	1	4	90	0.00	29.907 
18:10	64.0	64.0	64.0	75	55.9	1	5	90	0.00	29.907 
18:15	63.9	63.9	63.9	75	55.8	3	7	90	0.00	29.906 
18:20	63.5	63.5	63.5	75	55.4	4	7	90	0.00	29.906 
18:25	63.2	63.2	63.2	75	55.1	2	5	112	0.00	29.906 
18:30	63.1	63.1	63.1	76	55.4	2	4	90	0.00	29.918 
18:35	63.1	63.1	63.1	77	55.8	1	4	90	0.00	29.918 
18:40	62.9	62.9	62.9	77	55.6	2	6	90	0.00	29.918 
18:45	62.4	62.4	62.4	77	55.1	3	9	90	0.00	29.924 
18:50	62.0	62.0	62.0	78	55.1	3	8	90	0.00	29.924 
18:55	61.5	61.5	61.5	79	54.9	3	7	90	0.00	29.924 
19:00	61.2	61.2	61.2	79	54.6	2	6	68	0.00	29.927 
19:05	60.7	60.7	60.7	79	54.1	4	10	112	0.00	29.927 
19:10	60.4	60.4	60.4	80	54.2	3	6	90	0.00	29.927 
19:15	60.1	60.1	60.1	81	54.2	4	10	112	0.00	29.919 
19:20	59.6	59.6	59.6	81	53.8	3	8	112	0.00	29.919 
19:25	59.2	59.2	59.2	81	53.4	4	11	90	0.00	29.919 
19:30	58.9	58.9	58.9	82	53.4	3	10	90	0.00	29.915 
19:35	58.6	58.6	58.6	82	53.1	3	7	90	0.00	29.915 
19:40	58.3	58.3	58.3	83	53.2	3	7	112	0.00	29.915 
19:45	58.0	58.0	58.0	83	52.9	3	6	90	0.00	29.934 
19:50	57.8	57.8	57.8	83	52.7	4	9	90	0.00	29.934 
19:55	57.5	57.5	57.5	83	52.4	2	6	90	0.00	29.934 
20:00	57.3	57.3	57.3	83	52.2	3	7	90	0.00	29.936 
20:05	56.9	56.9	56.9	82	51.5	4	11	112	0.00	29.936 
20:10	56.5	56.5	56.5	83	51.4	3	9	90	0.00	29.936 
20:15	56.0	56.0	56.0	83	50.9	6	12	90	0.00	29.932 
20:20	55.6	55.6	55.6	83	50.5	5	12	90	0.00	29.932 
20:25	55.3	55.3	55.3	83	50.2	4	10	90	0.00	29.932 
20:30	55.0	55.0	55.0	84	50.3	4	11	90	0.00	29.922 
20:35	54.7	54.7	54.7	84	50.0	3	7	68	0.00	29.922 
20:40	54.5	54.5	54.5	84	49.8	2	6	112	0.00	29.922 
20:45	54.4	54.4	54.4	84	49.7	3	8	112	0.00	29.937 
20:50	53.9	53.9	53.9	84	49.2	7	13	112	0.00	29.937 
20:55	53.6	53.6	53.6	85	49.2	4	9	112	0.00	29.937 
21:00	53.2	53.2	53.2	85	48.8	5	10	90	0.00	29.956 
21:05	52.9	52.9	52.9	86	48.8	3	7	112	0.00	29.956 
21:10	52.8	52.8	52.8	86	48.7	3	10	112	0.00	29.956 
21:15	52.5	52.5	52.5	87	48.7	4	10	112	0.00	29.953 
21:20	52.2	52.2	52.2	87	48.4	3	6	112	0.00	29.953 
21:25	52.0	52.0	52.0	87	48.3	3	10	112	0.00	29.953 
21:30	51.7	51.7	51.7	88	48.3	4	9	112	0.00	29.976 
21:35	51.6	51.6	51.6	88	48.2	4	10	90	0.00	29.976 
21:40	51.4	51.4	51.4	88	48.0	3	10	90	0.00	29.976 
21:45	51.3	51.3	51.3	88	47.9	3	8	112	0.00	29.970 
21:50	51.0	51.0	51.0	88	47.6	4	13	90	0.00	29.970 
21:55	50.5	50.5	50.5	88	47.1	2	9	90	0.00	29.970 
22:00	50.4	50.4	50.4	88	47.0	2	7	112	0.00	29.976 
22:05	49.9	49.9	49.9	88	46.5	3	7	112	0.00	29.976 
22:10	49.6	49.6	49.6	89	46.5	2	7	112	0.00	29.976 
22:15	49.4	49.4	49.4	89	46.3	3	10	90	0.00	29.969 
22:20	49.2	49.2	49.2	89	46.1	2	11	90	0.00	29.969 
22:25	49.1	47.2	49.1	90	46.3	5	11	112	0.00	29.969 
22:30	48.8	47.5	48.8	90	46.0	4	12	112	0.00	29.955 
22:35	48.6	48.6	48.6	90	45.8	3	11	90	0.00	29.955 
22:40	48.6	48.6	48.6	91	46.1	3	10	112	0.00	29.955 
22:45	48.5	47.1	48.5	91	46.0	4	10	112	0.00	29.952 
22:50	48.5	46.5	48.5	91	46.0	5	11	90	0.00	29.952 
22:55	48.3	48.3	48.3	91	45.8	3	11	90	0.00	29.952 
23:00	48.3	48.3	48.3	92	46.1	3	10	90	0.00	29.959 
23:05	48.3	46.9	48.3	92	46.1	4	10	90	0.00	29.959 
23:10	48.2	48.2	48.2	92	46.0	3	10	90	0.00	29.959 
23:15	48.2	48.2	48.2	92	46.0	2	9	68	0.00	29.983 
23:20	48.2	48.2	48.2	92	46.0	3	5	90	0.00	29.983 
23:25	48.2	48.2	48.2	92	46.0	1	4	90	0.00	29.983 
23:30	48.2	48.2	48.2	92	46.0	2	5	90	0.00	29.982 
23:35	48.2	48.2	48.2	92	46.0	2	5	90	0.00	29.982 
23:40	48.3	48.3	48.3	92	46.1	2	6	68	0.00	29.982 
23:45	48.2	46.8	48.2	92	46.0	4	10	90	0.00	29.983 
23:50	48.0	48.0	48.0	91	45.5	3	7	90	0.00	29.983 
23:55	47.9	47.9	47.9	91	45.4	3	5	90	0.00	29.983 

CoCoRaHS
IN-AL-39
A2 Web Hosting
Creative Commons License
GoDaddy
search engine by freefind advanced

loaded 2018-11-13 02:19:58 • last modified 2010-11-18 10:43:29
Privacy PolicyDisclaimer
• wx.awcolley.com is powered by PmWiki v.2002016 •
• all content (unless otherwise noted) © 2018 A W Colley